Time;durP1;ratioP1;P1;durP2;ratioP2;P2;SDS_P1;SDS_P2;PMS_P1;PMS_P2;Temp;Humidity;BMP_temperature;BMP_pressure;BME280_temperature;BME280_humidity;BME280_pressure;Samples;Min_cycle;Max_cycle;Signal;HPM_P1;HPM_P2
2023/04/09 00:02:05;;;;;;;4.75;3.00;;;8.90;99.90;;;;;;5095578;28;20410;-61
2023/04/09 00:04:32;;;;;;;3.55;3.25;;;8.90;99.90;;;;;;5096388;28;20504;-61
2023/04/09 00:06:59;;;;;;;4.53;4.13;;;8.80;99.90;;;;;;5096482;28;20505;-60
2023/04/09 00:09:28;;;;;;;3.80;3.30;;;8.90;99.90;;;;;;5095948;28;20421;-59
2023/04/09 00:11:55;;;;;;;5.07;3.75;;;8.90;99.90;;;;;;5095831;28;20413;-59
2023/04/09 00:14:22;;;;;;;4.15;3.60;;;8.90;99.90;;;;;;5096174;28;20417;-59
2023/04/09 00:16:49;;;;;;;4.60;3.60;;;8.80;99.90;;;;;;5094829;28;20441;-59
2023/04/09 00:19:16;;;;;;;5.70;3.83;;;8.70;99.90;;;;;;5094955;28;20446;-60
2023/04/09 00:21:43;;;;;;;5.20;4.00;;;8.70;99.90;;;;;;5095625;28;20417;-60
2023/04/09 00:24:10;;;;;;;4.00;3.50;;;8.70;99.90;;;;;;5095268;28;20733;-60
2023/04/09 00:26:39;;;;;;;4.63;3.63;;;8.70;99.90;;;;;;5096097;28;20421;-60
2023/04/09 00:29:06;;;;;;;4.10;3.70;;;8.90;99.90;;;;;;5096072;28;20520;-60
2023/04/09 00:31:33;;;;;;;4.30;3.88;;;8.90;99.90;;;;;;5095552;28;20826;-60
2023/04/09 00:34:00;;;;;;;4.57;3.50;;;8.90;99.90;;;;;;5095531;28;20432;-60
2023/04/09 00:36:27;;;;;;;4.07;3.67;;;9.00;99.90;;;;;;5094704;28;20421;-60
2023/04/09 00:38:55;;;;;;;3.78;3.10;;;9.20;99.90;;;;;;5095768;28;20837;-60
2023/04/09 00:41:22;;;;;;;4.72;3.70;;;9.30;99.90;;;;;;5095847;28;20420;-60
2023/04/09 00:43:50;;;;;;;5.75;4.60;;;9.30;99.90;;;;;;5095167;28;20445;-59
2023/04/09 00:46:18;;;;;;;3.97;3.45;;;9.30;99.90;;;;;;5095025;28;20418;-60
2023/04/09 00:48:45;;;;;;;4.35;3.70;;;9.30;99.90;;;;;;5095345;28;20432;-60
2023/04/09 00:51:12;;;;;;;4.00;3.65;;;9.30;99.90;;;;;;5095003;28;20418;-60
2023/04/09 00:53:40;;;;;;;4.78;4.38;;;9.40;99.90;;;;;;5094042;28;20426;-60
2023/04/09 00:56:07;;;;;;;3.67;2.90;;;9.40;99.90;;;;;;5095373;28;20430;-60
2023/04/09 00:58:35;;;;;;;4.55;3.63;;;9.40;99.90;;;;;;5094617;28;20430;-61
2023/04/09 01:01:03;;;;;;;3.85;3.55;;;9.40;99.90;;;;;;5093769;28;20415;-60
2023/04/09 01:03:30;;;;;;;3.50;3.20;;;9.40;99.90;;;;;;5095025;28;20832;-60
2023/04/09 01:06:06;;;;;;;4.20;3.72;;;9.40;99.90;;;;;;5094857;28;20434;-60
2023/04/09 01:08:41;;;;;;;3.50;2.70;;;9.40;99.90;;;;;;5094479;28;20562;-60
2023/04/09 01:11:14;;;;;;;3.73;3.17;;;9.40;99.90;;;;;;5093264;28;20413;-60
2023/04/09 01:13:49;;;;;;;5.07;3.78;;;9.30;99.90;;;;;;5095027;28;20717;-60
2023/04/09 01:16:19;;;;;;;4.25;3.40;;;9.20;99.90;;;;;;5095224;28;20422;-60
2023/04/09 01:18:54;;;;;;;4.03;3.63;;;9.20;99.90;;;;;;5095150;28;20476;-60
2023/04/09 01:21:26;;;;;;;4.65;3.80;;;9.10;99.90;;;;;;5094948;28;20428;-60
2023/04/09 01:24:02;;;;;;;4.30;3.78;;;9.00;99.90;;;;;;5094149;28;20906;-60
2023/04/09 01:26:44;;;;;;;4.00;3.43;;;8.90;99.90;;;;;;5095178;28;20508;-60
2023/04/09 01:29:15;;;;;;;5.18;3.90;;;8.90;99.90;;;;;;5093244;28;20495;-60
2023/04/09 01:31:44;;;;;;;4.97;4.18;;;8.90;99.90;;;;;;5094339;28;20418;-60
2023/04/09 01:34:12;;;;;;;4.80;4.38;;;8.90;99.90;;;;;;5093542;28;20439;-60
2023/04/09 01:36:41;;;;;;;5.15;4.30;;;8.90;99.90;;;;;;5094033;28;20441;-60
2023/04/09 01:39:09;;;;;;;4.00;3.60;;;8.80;99.90;;;;;;5093794;28;20741;-61
2023/04/09 01:41:37;;;;;;;4.88;3.80;;;8.80;99.90;;;;;;5093828;28;20425;-61
2023/04/09 01:44:05;;;;;;;4.50;3.40;;;8.80;99.90;;;;;;5094525;28;20807;-61
2023/04/09 01:46:35;;;;;;;5.03;3.70;;;8.80;99.90;;;;;;5094708;28;20734;-60
2023/04/09 01:49:02;;;;;;;5.25;4.47;;;8.90;99.90;;;;;;5094520;28;20429;-61
2023/04/09 01:51:31;;;;;;;5.93;4.85;;;9.00;99.90;;;;;;5094145;28;20425;-61
2023/04/09 01:53:59;;;;;;;6.13;4.82;;;9.10;99.90;;;;;;5094767;28;20763;-61
2023/04/09 01:56:26;;;;;;;4.55;3.65;;;9.10;99.90;;;;;;5094410;28;20421;-61
2023/04/09 01:58:53;;;;;;;5.00;4.18;;;9.20;99.90;;;;;;5094834;28;20433;-59
2023/04/09 02:01:27;;;;;;;4.90;4.22;;;9.10;99.90;;;;;;5094649;28;20793;-59
2023/04/09 02:04:00;;;;;;;4.05;3.33;;;9.10;99.90;;;;;;5094011;28;20709;-59
2023/04/09 02:06:34;;;;;;;4.65;3.80;;;9.00;99.90;;;;;;5093625;28;20829;-60
2023/04/09 02:09:05;;;;;;;3.38;3.08;;;8.90;99.90;;;;;;5094439;28;20432;-60
2023/04/09 02:11:34;;;;;;;4.10;3.42;;;9.10;99.90;;;;;;5094451;28;20414;-60
2023/04/09 02:14:03;;;;;;;4.13;3.67;;;9.20;99.90;;;;;;5094572;28;20728;-60
2023/04/09 02:16:32;;;;;;;5.17;4.07;;;9.30;99.90;;;;;;5094574;28;20425;-60
2023/04/09 02:19:03;;;;;;;4.97;4.43;;;9.30;99.90;;;;;;5094446;28;20428;-60
2023/04/09 02:21:31;;;;;;;4.25;3.85;;;9.30;99.90;;;;;;5094348;28;20425;-60
2023/04/09 02:23:58;;;;;;;5.85;4.20;;;9.20;99.90;;;;;;5094813;28;20713;-59
2023/04/09 02:26:26;;;;;;;5.03;3.80;;;9.20;99.90;;;;;;5097111;28;20406;-60
2023/04/09 02:28:53;;;;;;;4.32;3.45;;;9.20;99.90;;;;;;5097666;28;20872;-59
2023/04/09 02:31:20;;;;;;;4.03;3.63;;;9.10;99.90;;;;;;5098033;28;20713;-60
2023/04/09 02:33:47;;;;;;;4.40;3.67;;;9.00;99.90;;;;;;5097796;28;20422;-60
2023/04/09 02:36:15;;;;;;;4.95;4.55;;;8.90;99.90;;;;;;5098105;28;20410;-59
2023/04/09 02:38:43;;;;;;;4.43;4.03;;;8.90;99.90;;;;;;5097003;28;20775;-60
2023/04/09 02:41:10;;;;;;;4.28;3.38;;;8.80;99.90;;;;;;5097182;28;20421;-60
2023/04/09 02:43:37;;;;;;;4.72;3.90;;;8.70;99.90;;;;;;5097591;28;20426;-60
2023/04/09 02:46:04;;;;;;;5.07;4.30;;;8.80;99.90;;;;;;5097186;28;20430;-60
2023/04/09 02:48:31;;;;;;;4.45;3.80;;;8.80;99.90;;;;;;5097161;28;20433;-60
2023/04/09 02:50:59;;;;;;;3.50;3.20;;;8.80;99.90;;;;;;5097596;28;20418;-60
2023/04/09 02:53:27;;;;;;;4.47;3.80;;;8.70;99.90;;;;;;5097725;28;20702;-60
2023/04/09 02:55:54;;;;;;;3.92;3.03;;;8.70;99.90;;;;;;5097181;28;20426;-60
2023/04/09 02:58:21;;;;;;;4.45;3.65;;;8.80;99.90;;;;;;5097518;28;20443;-60
2023/04/09 03:00:48;;;;;;;4.10;3.50;;;8.70;99.90;;;;;;5095497;28;20426;-60
2023/04/09 03:03:15;;;;;;;3.90;3.10;;;8.70;99.90;;;;;;5095547;28;20421;-60
2023/04/09 03:05:43;;;;;;;4.72;4.00;;;8.70;99.90;;;;;;5096086;28;20426;-60
2023/04/09 03:08:10;;;;;;;4.32;3.38;;;8.80;99.90;;;;;;5096253;28;20473;-60
2023/04/09 03:10:38;;;;;;;5.10;4.53;;;8.70;99.90;;;;;;5096293;28;20422;-61
2023/04/09 03:13:05;;;;;;;5.10;4.60;;;8.70;99.90;;;;;;5096931;28;20853;-61
2023/04/09 03:15:33;;;;;;;4.50;3.92;;;8.70;99.90;;;;;;5096478;28;20710;-60
2023/04/09 03:18:00;;;;;;;4.97;3.60;;;8.50;99.90;;;;;;5097476;28;20833;-60
2023/04/09 03:20:27;;;;;;;4.05;3.25;;;8.40;99.90;;;;;;5097395;28;20801;-61
2023/04/09 03:22:54;;;;;;;4.10;3.67;;;8.40;99.90;;;;;;5096876;28;20426;-61
2023/04/09 03:25:21;;;;;;;3.53;3.10;;;8.40;99.90;;;;;;5095728;28;20430;-60
2023/04/09 03:27:49;;;;;;;4.95;3.58;;;8.40;99.90;;;;;;5095879;28;20430;-61
2023/04/09 03:30:16;;;;;;;3.55;3.25;;;8.50;99.90;;;;;;5095465;28;20755;-61
2023/04/09 03:32:44;;;;;;;4.70;3.65;;;8.40;99.90;;;;;;5095675;28;20840;-60
2023/04/09 03:35:11;;;;;;;4.28;3.80;;;8.30;99.90;;;;;;5096163;28;20416;-61
2023/04/09 03:37:38;;;;;;;4.45;3.78;;;8.30;99.90;;;;;;5094220;28;20418;-60
2023/04/09 03:40:06;;;;;;;5.50;4.55;;;8.30;99.90;;;;;;5095092;28;20414;-61
2023/04/09 03:42:33;;;;;;;5.47;4.70;;;8.30;99.90;;;;;;5095849;28;20829;-61
2023/04/09 03:45:02;;;;;;;4.40;4.00;;;8.40;99.90;;;;;;5096706;28;20433;-61
2023/04/09 03:47:29;;;;;;;4.78;4.28;;;8.40;99.90;;;;;;5096614;28;20422;-59
2023/04/09 03:49:56;;;;;;;4.70;4.30;;;8.30;99.90;;;;;;5096823;28;20418;-59
2023/04/09 03:52:23;;;;;;;7.05;5.10;;;8.40;99.90;;;;;;5096670;28;20421;-61
2023/04/09 03:54:50;;;;;;;5.20;4.60;;;8.40;99.90;;;;;;5096735;28;20417;-57
2023/04/09 03:57:17;;;;;;;4.30;3.63;;;8.30;99.90;;;;;;5096233;28;20429;-58
2023/04/09 03:59:45;;;;;;;3.85;3.45;;;8.20;99.90;;;;;;5095969;28;20418;-58
2023/04/09 04:02:13;;;;;;;4.07;3.50;;;8.20;99.90;;;;;;5096565;28;20741;-58
2023/04/09 04:04:40;;;;;;;3.35;3.05;;;8.10;99.90;;;;;;5096326;28;20432;-58
2023/04/09 04:07:07;;;;;;;6.10;4.15;;;8.10;99.90;;;;;;5096591;28;20409;-58
2023/04/09 04:09:34;;;;;;;4.57;3.50;;;8.20;99.90;;;;;;5095816;28;20426;-58
2023/04/09 04:12:02;;;;;;;5.18;4.18;;;8.30;99.90;;;;;;5096316;28;20413;-59
2023/04/09 04:14:29;;;;;;;3.90;3.50;;;8.30;99.90;;;;;;5095795;28;20425;-58
2023/04/09 04:16:56;;;;;;;5.05;3.58;;;8.30;99.90;;;;;;5096265;28;20447;-58
2023/04/09 04:19:24;;;;;;;5.43;3.90;;;8.30;99.90;;;;;;5096140;28;20425;-58
2023/04/09 04:21:52;;;;;;;4.60;3.90;;;8.30;99.90;;;;;;5096217;28;20421;-59
2023/04/09 04:24:19;;;;;;;6.20;4.50;;;8.40;99.90;;;;;;5095674;28;20748;-58
2023/04/09 04:26:46;;;;;;;5.03;3.80;;;8.40;99.90;;;;;;5096009;28;20547;-58
2023/04/09 04:29:13;;;;;;;5.10;4.60;;;8.40;99.90;;;;;;5095952;28;20425;-59
2023/04/09 04:31:40;;;;;;;4.90;4.30;;;8.50;99.90;;;;;;5095402;28;20425;-59
2023/04/09 04:34:07;;;;;;;5.63;5.03;;;8.60;99.90;;;;;;5095732;28;20453;-58
2023/04/09 04:36:37;;;;;;;6.55;5.45;;;8.60;99.90;;;;;;5094143;28;20406;-59
2023/04/09 04:39:04;;;;;;;5.70;4.78;;;8.70;99.90;;;;;;5093946;28;20429;-60
2023/04/09 04:41:31;;;;;;;4.47;4.07;;;8.70;99.90;;;;;;5094040;28;20406;-59
2023/04/09 04:43:58;;;;;;;4.53;4.13;;;8.60;99.90;;;;;;5094419;28;20433;-59
2023/04/09 04:46:25;;;;;;;5.45;4.35;;;8.60;99.90;;;;;;5094078;28;20509;-59
2023/04/09 04:48:52;;;;;;;4.70;4.15;;;8.60;99.90;;;;;;5094763;28;20902;-59
2023/04/09 04:51:19;;;;;;;5.35;4.50;;;8.50;99.90;;;;;;5095285;28;20418;-59
2023/04/09 04:53:48;;;;;;;6.30;5.70;;;8.50;99.90;;;;;;5095600;28;20429;-59
2023/04/09 04:56:15;;;;;;;6.30;5.18;;;8.30;99.90;;;;;;5095248;28;20424;-59
2023/04/09 04:58:42;;;;;;;5.30;4.78;;;8.10;99.90;;;;;;5094950;28;20430;-59
2023/04/09 05:01:09;;;;;;;4.67;4.27;;;8.20;99.90;;;;;;5095510;28;20821;-58
2023/04/09 05:03:39;;;;;;;5.60;3.75;;;8.30;99.90;;;;;;5094879;28;20425;-58
2023/04/09 05:06:06;;;;;;;5.00;4.50;;;8.40;99.90;;;;;;5093648;28;20429;-58
2023/04/09 05:08:34;;;;;;;4.13;3.60;;;8.30;99.90;;;;;;5095380;28;20840;-59
2023/04/09 05:11:02;;;;;;;5.97;4.15;;;8.30;99.90;;;;;;5094332;28;20417;-58
2023/04/09 05:13:29;;;;;;;5.65;5.13;;;8.30;99.90;;;;;;5094008;28;20721;-58
2023/04/09 05:15:56;;;;;;;5.57;4.65;;;8.30;99.90;;;;;;5093516;28;20402;-58
2023/04/09 05:18:23;;;;;;;5.18;4.50;;;8.20;99.90;;;;;;5093565;28;20426;-59
2023/04/09 05:20:50;;;;;;;4.95;4.45;;;8.30;99.90;;;;;;5093852;28;20496;-60
2023/04/09 05:23:17;;;;;;;5.87;5.00;;;8.20;99.90;;;;;;5093202;28;20425;-58
2023/04/09 05:25:45;;;;;;;6.00;4.72;;;8.30;99.90;;;;;;5093084;28;20433;-59
2023/04/09 05:28:15;;;;;;;6.30;4.50;;;8.30;99.90;;;;;;5093266;28;20820;-58
2023/04/09 05:30:45;;;;;;;5.82;4.32;;;8.30;99.90;;;;;;5095174;28;20413;-58
2023/04/09 05:33:12;;;;;;;6.07;4.80;;;8.40;99.90;;;;;;5094600;28;20429;-58
2023/04/09 05:35:40;;;;;;;6.27;5.67;;;8.50;99.90;;;;;;5093854;28;20887;-59
2023/04/09 05:38:07;;;;;;;7.07;5.47;;;8.60;99.90;;;;;;5092351;28;20433;-59
2023/04/09 05:40:34;;;;;;;5.25;4.63;;;8.60;99.90;;;;;;5092367;28;20853;-58
2023/04/09 05:43:01;;;;;;;5.70;4.90;;;8.70;99.90;;;;;;5093379;28;20472;-59
2023/04/09 05:45:30;;;;;;;7.32;5.50;;;8.80;99.90;;;;;;5093453;28;20430;-58
2023/04/09 05:47:57;;;;;;;6.20;5.60;;;8.80;99.90;;;;;;5093341;28;20461;-59
2023/04/09 05:50:24;;;;;;;6.82;4.50;;;8.90;99.90;;;;;;5093052;28;20717;-59
2023/04/09 05:52:51;;;;;;;5.78;5.28;;;8.90;99.90;;;;;;5092669;28;20721;-59
2023/04/09 05:55:18;;;;;;;5.78;5.18;;;8.90;99.90;;;;;;5091239;28;20425;-61
2023/04/09 05:57:45;;;;;;;5.60;5.00;;;8.90;99.90;;;;;;5051109;28;20436;-59
2023/04/09 06:00:14;;;;;;;5.43;4.93;;;9.00;99.90;;;;;;5052958;28;20509;-60
2023/04/09 06:02:42;;;;;;;5.93;4.90;;;9.10;99.90;;;;;;5055900;28;20427;-60
2023/04/09 06:05:10;;;;;;;7.00;6.03;;;9.10;99.90;;;;;;5056463;28;20421;-59
2023/04/09 06:07:37;;;;;;;4.90;4.45;;;9.20;99.90;;;;;;5057597;28;20846;-59
2023/04/09 06:10:04;;;;;;;5.82;5.18;;;9.30;99.90;;;;;;5058383;28;20427;-59
2023/04/09 06:12:34;;;;;;;5.10;4.38;;;9.40;99.90;;;;;;5058476;28;20417;-59
2023/04/09 06:15:01;;;;;;;5.85;5.10;;;9.40;99.90;;;;;;5057487;28;20428;-59
2023/04/09 06:17:29;;;;;;;5.35;4.82;;;9.50;99.90;;;;;;5058222;28;20413;-58
2023/04/09 06:19:57;;;;;;;5.28;4.10;;;9.60;99.90;;;;;;5058680;28;20425;-59
2023/04/09 06:22:24;;;;;;;5.15;4.70;;;9.60;99.90;;;;;;5057602;28;20829;-59
2023/04/09 06:24:51;;;;;;;5.33;4.83;;;9.60;99.90;;;;;;5058030;28;20456;-59
2023/04/09 06:27:20;;;;;;;6.63;6.03;;;9.40;99.90;;;;;;5058307;28;20437;-59
2023/04/09 06:29:47;;;;;;;6.60;6.00;;;9.20;99.90;;;;;;5057669;28;20440;-59
2023/04/09 06:32:15;;;;;;;7.60;5.63;;;9.00;99.90;;;;;;5056484;28;20516;-59
2023/04/09 06:34:42;;;;;;;6.35;5.40;;;8.70;99.90;;;;;;5055932;28;20436;-59
2023/04/09 06:37:10;;;;;;;5.85;5.18;;;8.60;99.90;;;;;;5055146;28;20422;-58
2023/04/09 06:39:37;;;;;;;7.63;6.30;;;8.30;99.90;;;;;;5054559;28;20433;-59
2023/04/09 06:42:04;;;;;;;6.50;5.63;;;8.30;99.90;;;;;;5055840;28;20702;-58
2023/04/09 06:44:33;;;;;;;7.00;5.60;;;8.30;99.90;;;;;;5055741;28;20429;-59
2023/04/09 06:47:01;;;;;;;6.00;4.57;;;8.40;99.90;;;;;;5057031;28;20438;-62
2023/04/09 06:49:28;;;;;;;6.93;4.63;;;8.60;99.90;;;;;;5057450;28;20459;-59
2023/04/09 06:51:55;;;;;;;5.72;4.90;;;8.80;99.90;;;;;;5057638;28;20713;-59
2023/04/09 06:54:23;;;;;;;7.47;5.85;;;9.00;99.90;;;;;;5056358;28;20451;-60
2023/04/09 06:56:50;;;;;;;5.32;4.70;;;9.20;99.90;;;;;;5081325;28;20728;-59
2023/04/09 06:59:17;;;;;;;5.50;4.00;;;9.30;99.90;;;;;;5097728;28;20694;-59
2023/04/09 07:01:46;;;;;;;5.00;3.83;;;9.40;99.90;;;;;;5097725;28;20717;-60
2023/04/09 07:04:13;;;;;;;5.53;4.40;;;9.50;99.90;;;;;;5097795;28;20444;-59
2023/04/09 07:06:40;;;;;;;5.20;3.92;;;9.50;99.90;;;;;;5096356;28;20434;-59
2023/04/09 07:09:07;;;;;;;5.22;4.15;;;9.60;99.90;;;;;;5096701;28;20728;-59
2023/04/09 07:11:36;;;;;;;4.03;3.22;;;9.50;99.90;;;;;;5094922;28;20745;-60
2023/04/09 07:14:03;;;;;;;4.90;3.80;;;9.60;99.90;;;;;;5095728;28;20461;-59
2023/04/09 07:16:30;;;;;;;4.65;4.20;;;9.70;99.90;;;;;;5096440;28;20414;-60
2023/04/09 07:18:57;;;;;;;5.38;4.60;;;9.80;99.90;;;;;;5096185;28;20432;-60
2023/04/09 07:21:25;;;;;;;6.00;4.00;;;9.80;99.90;;;;;;5093957;28;20422;-59
2023/04/09 07:23:52;;;;;;;6.03;4.40;;;9.60;99.90;;;;;;5096996;28;20434;-59
2023/04/09 07:26:20;;;;;;;4.00;2.80;;;9.40;99.90;;;;;;5095772;28;20437;-59
2023/04/09 07:28:48;;;;;;;3.60;2.90;;;9.40;99.90;;;;;;5093558;28;20434;-58
2023/04/09 07:31:15;;;;;;;4.28;3.20;;;9.50;99.90;;;;;;5095139;28;20429;-58
2023/04/09 07:33:43;;;;;;;3.78;2.80;;;9.70;99.90;;;;;;5096749;28;20455;-59
2023/04/09 07:36:10;;;;;;;3.55;3.25;;;9.90;99.90;;;;;;5096105;28;20467;-60
2023/04/09 07:38:37;;;;;;;5.22;3.90;;;10.00;99.90;;;;;;5095872;28;20720;-58
2023/04/09 07:41:04;;;;;;;3.35;2.60;;;10.10;99.90;;;;;;5095901;28;20417;-58
2023/04/09 07:43:32;;;;;;;4.50;2.78;;;10.10;99.90;;;;;;5095798;28;20438;-60
2023/04/09 07:46:00;;;;;;;3.97;2.57;;;10.10;99.90;;;;;;5096203;28;20894;-58
2023/04/09 07:48:27;;;;;;;2.80;1.80;;;10.20;99.90;;;;;;5095336;28;20426;-58
2023/04/09 07:50:54;;;;;;;2.70;1.75;;;10.30;99.90;;;;;;5095409;28;20906;-60
2023/04/09 07:53:21;;;;;;;3.13;2.00;;;10.60;99.90;;;;;;5095224;28;20709;-60
2023/04/09 07:55:50;;;;;;;2.10;1.58;;;10.60;99.90;;;;;;5095341;28;20429;-59
2023/04/09 07:58:18;;;;;;;2.00;1.30;;;10.70;99.90;;;;;;5094430;28;20709;-60
2023/04/09 08:00:45;;;;;;;1.63;1.20;;;10.80;99.90;;;;;;5095224;28;20935;-60
2023/04/09 08:03:13;;;;;;;2.17;1.40;;;10.90;99.90;;;;;;5094958;28;20432;-58
2023/04/09 08:05:40;;;;;;;2.65;1.60;;;11.00;99.90;;;;;;5095147;28;20750;-59
2023/04/09 08:08:07;;;;;;;2.80;2.00;;;11.30;99.90;;;;;;5093842;28;20434;-59
2023/04/09 08:10:34;;;;;;;3.80;2.28;;;11.30;99.90;;;;;;5095969;28;20405;-59
2023/04/09 08:13:02;;;;;;;3.17;2.20;;;11.40;99.90;;;;;;5094493;28;20430;-59
2023/04/09 08:15:29;;;;;;;3.13;1.80;;;11.50;99.90;;;;;;5094445;28;20410;-59
2023/04/09 08:17:56;;;;;;;3.65;2.40;;;11.40;99.90;;;;;;5094273;28;20422;-60
2023/04/09 08:20:25;;;;;;;2.90;1.92;;;11.40;99.90;;;;;;5093178;28;20868;-59
2023/04/09 08:22:52;;;;;;;2.83;1.75;;;11.50;99.90;;;;;;5093503;28;20432;-60
2023/04/09 08:25:19;;;;;;;2.15;1.60;;;11.40;99.90;;;;;;5094985;28;20422;-59
2023/04/09 08:27:46;;;;;;;3.30;2.10;;;11.40;99.90;;;;;;5094834;28;20535;-60
2023/04/09 08:30:13;;;;;;;2.58;1.85;;;11.50;99.90;;;;;;5093256;28;20826;-59
2023/04/09 08:32:40;;;;;;;2.60;1.70;;;11.80;99.90;;;;;;5092341;28;20421;-60
2023/04/09 08:35:09;;;;;;;1.83;1.60;;;11.80;99.90;;;;;;5093106;28;20421;-60
2023/04/09 08:37:40;;;;;;;1.83;1.27;;;12.00;99.90;;;;;;5094037;28;20417;-60
2023/04/09 08:40:09;;;;;;;1.40;1.00;;;12.20;99.90;;;;;;5093892;28;20418;-60
2023/04/09 08:42:39;;;;;;;1.80;1.00;;;12.30;99.90;;;;;;5094633;28;20417;-60
2023/04/09 08:45:08;;;;;;;1.80;1.00;;;12.00;99.90;;;;;;5094871;28;20433;-60
2023/04/09 08:47:36;;;;;;;1.70;1.23;;;12.00;99.90;;;;;;5094757;28;20837;-59
2023/04/09 08:50:04;;;;;;;1.70;1.20;;;12.20;99.90;;;;;;5094655;28;20479;-60
2023/04/09 08:52:33;;;;;;;2.40;1.20;;;12.50;99.90;;;;;;5093062;28;20867;-61
2023/04/09 08:55:01;;;;;;;1.80;1.30;;;12.30;99.90;;;;;;5092810;28;20417;-61
2023/04/09 08:57:28;;;;;;;2.20;1.40;;;12.10;99.90;;;;;;5024574;28;1927199;-60
2023/04/09 08:59:57;;;;;;;1.70;1.40;;;12.20;99.90;;;;;;5091922;28;20418;-60
2023/04/09 09:02:24;;;;;;;2.55;1.67;;;12.30;99.90;;;;;;5093008;28;20422;-61
2023/04/09 09:04:53;;;;;;;2.38;1.30;;;12.40;99.90;;;;;;5093282;28;20418;-60
2023/04/09 09:07:22;;;;;;;2.58;1.50;;;12.50;99.90;;;;;;5093793;28;20858;-61
2023/04/09 09:09:54;;;;;;;1.58;1.20;;;12.70;99.90;;;;;;5094375;28;20428;-61
2023/04/09 09:12:33;;;;;;;2.00;1.40;;;12.60;99.90;;;;;;5095272;28;20484;-60
2023/04/09 09:15:01;;;;;;;2.55;1.60;;;13.00;99.90;;;;;;5094492;28;20417;-60
2023/04/09 09:17:28;;;;;;;2.35;1.40;;;12.70;99.90;;;;;;5095002;28;20420;-60
2023/04/09 09:19:55;;;;;;;2.40;1.50;;;12.40;99.90;;;;;;5095181;28;20414;-60
2023/04/09 09:22:22;;;;;;;2.10;1.20;;;12.70;99.90;;;;;;5095324;28;20418;-59
2023/04/09 09:24:51;;;;;;;1.75;1.10;;;13.00;99.90;;;;;;5094767;28;20425;-59
2023/04/09 09:27:38;;;;;;;2.50;1.40;;;13.20;99.90;;;;;;5094736;28;20465;-61
2023/04/09 09:30:07;;;;;;;2.80;1.70;;;13.50;99.90;;;;;;5094873;28;20424;-60
2023/04/09 09:32:35;;;;;;;3.05;2.08;;;13.10;99.90;;;;;;5094635;28;20421;-59
2023/04/09 09:35:03;;;;;;;2.10;1.40;;;13.10;99.90;;;;;;5093295;28;20851;-60
2023/04/09 09:37:31;;;;;;;2.03;1.40;;;13.00;99.90;;;;;;5093977;28;20448;-62
2023/04/09 09:39:58;;;;;;;2.90;1.35;;;13.00;99.90;;;;;;5094332;28;20418;-60
2023/04/09 09:42:26;;;;;;;1.70;1.10;;;12.90;99.90;;;;;;5094059;28;20421;-60
2023/04/09 09:44:55;;;;;;;2.00;1.20;;;13.30;99.90;;;;;;5093767;28;20449;-62
2023/04/09 09:47:24;;;;;;;1.80;1.10;;;13.20;99.90;;;;;;5094025;28;20827;-61
2023/04/09 09:49:52;;;;;;;1.47;1.07;;;12.90;99.90;;;;;;5094650;28;20440;-60
2023/04/09 09:52:25;;;;;;;2.03;1.40;;;12.90;99.90;;;;;;5094312;28;20484;-60
2023/04/09 09:54:53;;;;;;;2.58;1.50;;;13.10;99.90;;;;;;5093852;28;20422;-62
2023/04/09 09:57:23;;;;;;;1.80;1.30;;;13.20;99.90;;;;;;5092946;28;20475;-60
2023/04/09 09:59:54;;;;;;;2.47;1.30;;;13.40;99.90;;;;;;5093123;28;20490;-60
2023/04/09 10:02:25;;;;;;;1.90;1.20;;;13.60;99.90;;;;;;5094151;28;20756;-59
2023/04/09 10:04:53;;;;;;;1.52;1.00;;;13.50;99.90;;;;;;5093248;28;20805;-62
2023/04/09 10:07:21;;;;;;;1.30;1.10;;;13.50;99.90;;;;;;5093972;28;20429;-62
2023/04/09 10:09:50;;;;;;;1.10;0.80;;;13.10;99.90;;;;;;5094168;28;20763;-61
2023/04/09 10:12:22;;;;;;;1.35;0.90;;;12.70;99.90;;;;;;5092638;28;20422;-60
2023/04/09 10:14:51;;;;;;;1.33;0.90;;;13.10;99.90;;;;;;5092300;28;20422;-60
2023/04/09 10:17:18;;;;;;;1.63;1.02;;;13.60;99.90;;;;;;5093063;28;20465;-60
2023/04/09 10:19:54;;;;;;;1.50;0.80;;;13.70;99.90;;;;;;5092611;28;20430;-60
2023/04/09 10:22:26;;;;;;;1.30;0.90;;;13.60;99.90;;;;;;5092576;28;20463;-60
2023/04/09 10:24:54;;;;;;;1.20;0.90;;;13.60;99.80;;;;;;5091069;28;20475;-59
2023/04/09 10:27:22;;;;;;;1.80;1.00;;;13.70;99.90;;;;;;5092039;28;20429;-60
2023/04/09 10:29:50;;;;;;;1.10;0.80;;;14.30;99.90;;;;;;5092895;28;20422;-60
2023/04/09 10:32:21;;;;;;;1.02;0.80;;;14.60;97.80;;;;;;5092368;28;20417;-60
2023/04/09 10:34:50;;;;;;;1.10;0.80;;;14.70;96.50;;;;;;5091569;28;20521;-60
2023/04/09 10:37:22;;;;;;;0.90;0.70;;;15.00;96.30;;;;;;5091378;28;20410;-60
2023/04/09 10:39:51;;;;;;;1.10;0.80;;;15.10;91.10;;;;;;5092130;28;20417;-59
2023/04/09 10:42:23;;;;;;;1.10;0.70;;;14.50;89.40;;;;;;5093344;28;20420;-60
2023/04/09 10:45:06;;;;;;;1.20;0.90;;;14.00;92.70;;;;;;5092537;28;20516;-60
2023/04/09 10:47:34;;;;;;;1.20;0.85;;;14.20;93.40;;;;;;5093938;28;20430;-60
2023/04/09 10:50:17;;;;;;;1.30;1.00;;;14.10;93.30;;;;;;5095646;28;20422;-60
2023/04/09 10:52:44;;;;;;;1.90;1.10;;;13.70;94.40;;;;;;5097857;28;20833;-61
2023/04/09 10:55:30;;;;;;;1.50;1.00;;;13.60;96.10;;;;;;5097580;28;20504;-60
2023/04/09 10:57:57;;;;;;;1.40;1.10;;;13.90;94.80;;;;;;5096809;28;20833;-60
2023/04/09 11:00:25;;;;;;;1.13;0.90;;;14.00;94.30;;;;;;5098097;28;20417;-60
2023/04/09 11:03:22;;;;;;;1.13;0.90;;;14.20;92.80;;;;;;5097842;28;20509;-61
2023/04/09 11:05:58;;;;;;;1.20;0.80;;;14.50;92.50;;;;;;5096887;28;20418;-60
2023/04/09 11:08:29;;;;;;;1.00;0.80;;;14.80;90.10;;;;;;5097138;28;20499;-60
2023/04/09 11:10:57;;;;;;;1.30;0.90;;;14.90;87.80;;;;;;5097684;28;20822;-60
2023/04/09 11:13:24;;;;;;;1.20;0.90;;;14.70;89.20;;;;;;5095946;28;20718;-61
2023/04/09 11:15:52;;;;;;;1.20;1.00;;;14.80;91.50;;;;;;5097147;28;20463;-61
2023/04/09 11:18:23;;;;;;;1.58;1.02;;;14.70;90.90;;;;;;5097493;28;20710;-60
2023/04/09 11:20:55;;;;;;;1.40;1.00;;;14.70;90.90;;;;;;5097367;28;20418;-60
2023/04/09 11:23:22;;;;;;;1.58;1.00;;;13.60;91.70;;;;;;5097282;28;20433;-60
2023/04/09 11:25:50;;;;;;;1.50;1.00;;;13.70;92.10;;;;;;5096366;28;20422;-60
2023/04/09 11:28:18;;;;;;;1.53;1.10;;;13.50;92.90;;;;;;5090253;28;20485;-59
2023/04/09 11:30:46;;;;;;;1.60;1.00;;;13.00;93.00;;;;;;5094610;28;20429;-61
2023/04/09 11:33:14;;;;;;;1.90;1.10;;;13.00;94.40;;;;;;5095602;28;20426;-59
2023/04/09 11:35:41;;;;;;;1.55;1.10;;;13.10;93.60;;;;;;5095834;28;20422;-60
2023/04/09 11:38:10;;;;;;;1.70;1.10;;;13.10;94.10;;;;;;5095990;28;20824;-60
2023/04/09 11:40:46;;;;;;;1.60;1.10;;;13.00;95.40;;;;;;5094495;28;20428;-60
2023/04/09 11:43:15;;;;;;;1.75;1.10;;;12.90;96.00;;;;;;5093616;28;20783;-59
2023/04/09 11:45:42;;;;;;;1.85;1.20;;;12.70;94.70;;;;;;5095472;28;20509;-61
2023/04/09 11:48:11;;;;;;;1.70;1.10;;;12.80;95.40;;;;;;5093871;28;20551;-60
2023/04/09 11:50:38;;;;;;;1.70;1.20;;;13.30;94.80;;;;;;5094407;28;20468;-60
2023/04/09 11:53:20;;;;;;;1.60;1.00;;;13.70;94.30;;;;;;5095403;28;20433;-58
2023/04/09 11:55:51;;;;;;;1.40;1.00;;;14.20;94.50;;;;;;5095960;28;20421;-62
2023/04/09 11:58:18;;;;;;;1.60;1.00;;;14.50;94.10;;;;;;5095832;28;20421;-58
2023/04/09 12:00:45;;;;;;;1.30;1.00;;;14.60;92.60;;;;;;5096186;28;20425;-59
2023/04/09 12:03:14;;;;;;;1.33;1.00;;;14.60;93.00;;;;;;5094445;28;20430;-59
2023/04/09 12:05:47;;;;;;;1.70;1.10;;;14.20;91.10;;;;;;5095140;28;20853;-59
2023/04/09 12:08:15;;;;;;;1.30;1.00;;;14.30;90.70;;;;;;5095307;28;20434;-60
2023/04/09 12:10:44;;;;;;;1.60;1.00;;;14.60;92.30;;;;;;5096442;28;20430;-61
2023/04/09 12:13:12;;;;;;;1.70;1.10;;;14.80;90.30;;;;;;5095117;28;20524;-60
2023/04/09 12:15:42;;;;;;;1.42;1.00;;;14.90;88.10;;;;;;5094463;28;20772;-59
2023/04/09 12:18:10;;;;;;;1.70;1.00;;;15.10;89.30;;;;;;5094726;28;20421;-59
2023/04/09 12:20:39;;;;;;;1.60;1.10;;;15.30;87.20;;;;;;5095471;28;20805;-59
2023/04/09 12:23:07;;;;;;;2.13;1.08;;;15.50;85.50;;;;;;5096120;28;20520;-59
2023/04/09 12:25:36;;;;;;;1.63;1.00;;;15.80;83.30;;;;;;5095564;28;20418;-59
2023/04/09 12:28:05;;;;;;;1.63;1.00;;;15.80;84.10;;;;;;5095540;28;20434;-59
2023/04/09 12:30:33;;;;;;;1.60;1.10;;;15.70;82.80;;;;;;5094736;28;20773;-60
2023/04/09 12:33:00;;;;;;;1.50;1.10;;;15.90;82.70;;;;;;5089477;28;20738;-60
2023/04/09 12:35:28;;;;;;;1.70;1.10;;;15.90;82.20;;;;;;5078927;28;20420;-60
2023/04/09 12:37:55;;;;;;;1.30;1.00;;;15.70;84.30;;;;;;5084813;28;20927;-60
2023/04/09 12:40:22;;;;;;;1.40;1.00;;;15.70;83.30;;;;;;5081395;28;20832;-60
2023/04/09 12:42:50;;;;;;;2.88;1.00;;;16.10;82.50;;;;;;5093138;28;20421;-60
2023/04/09 12:45:19;;;;;;;1.50;1.10;;;16.20;78.50;;;;;;5078520;28;20838;-59
2023/04/09 12:47:47;;;;;;;1.63;1.00;;;16.00;77.30;;;;;;5086717;28;20440;-61
2023/04/09 12:50:14;;;;;;;1.50;1.10;;;15.80;78.10;;;;;;5074440;28;20820;-60
2023/04/09 12:52:42;;;;;;;1.45;1.00;;;15.70;79.60;;;;;;5075091;28;21395;-59
2023/04/09 12:55:10;;;;;;;1.70;1.17;;;15.70;78.20;;;;;;5074489;28;20416;-59
2023/04/09 12:57:38;;;;;;;1.60;0.90;;;15.70;78.30;;;;;;5088940;28;20703;-58
2023/04/09 13:00:06;;;;;;;1.40;0.90;;;16.10;79.60;;;;;;5093097;28;20422;-59